Terminal Aerodrome Forecast
Issued by NWS Boston, MA

Home | Current Version | Previous Version | Text Only | Print | Product List | Glossary On
Versions: 1 2 3 4 5 6 7 8 9 10 11 12 13 14 15 16 17 18 19 20 21 22 23 24 25 26 27 28 29 30 31 32 33 34 35 36 37 38 39 40 41 42 43 44 45 46 47 48 49 50
000
FTUS41 KBOX 160826 AAB
TAFBOS
TAF AMD
KBOS 160826Z 1608/1712 31015G25KT 2SM -RASNPL BKN009 OVC015
     FM160930 31012G22KT 5SM -SHSN BKN020 BKN090
     FM161100 31012G25KT P6SM SCT100
     FM161800 33012KT P6SM SKC
     FM162300 01010KT P6SM SKC=

USA.gov is the U.S. government's official web portal to all federal, state and local government web resources and services.